THY6JB LTBJ-LTFM
Flight info
| Callsign | THY6JB |
|---|---|
| Flight time | 0h 44m |
| Altitude | 27000 |
| Route | BERGO N618 DUGLA Z713 INBET |
| Aircraft | A321/M-SDE3FGHIRWY/LB1 |
Departure
| Time | 2026-05-06 21:43 |
|---|---|
| Airport | Adnan Menderes International Airport (LTBJ) |
Arrival
| Time | 2026-05-06 22:27 |
|---|---|
| Airport | İstanbul Airport (LTFM) |
| Time | Latitude | Longitude | Altitude | Speed | Heading |
|---|---|---|---|---|---|
| 2026-05-06 21:10 | 38.29202 | 27.15090 | 409 ft | 0 kts | 256° |
| 2026-05-06 21:32 | 38.29208 | 27.15121 | 411 ft | 2 kts | 256° |
| 2026-05-06 21:32 | 38.29216 | 27.15150 | 411 ft | 4 kts | 224° |
| 2026-05-06 21:33 | 38.29237 | 27.15161 | 411 ft | 4 kts | 173° |
| 2026-05-06 21:33 | 38.29259 | 27.15156 | 406 ft | 0 kts | 167° |
| 2026-05-06 21:36 | 38.29255 | 27.15157 | 405 ft | 1 kts | 167° |
| 2026-05-06 21:36 | 38.29241 | 27.15161 | 411 ft | 3 kts | 167° |
| 2026-05-06 21:36 | 38.29217 | 27.15168 | 411 ft | 4 kts | 167° |
| 2026-05-06 21:36 | 38.29184 | 27.15178 | 411 ft | 6 kts | 167° |
| 2026-05-06 21:37 | 38.29142 | 27.15191 | 411 ft | 7 kts | 167° |
| 2026-05-06 21:37 | 38.29109 | 27.15201 | 411 ft | 8 kts | 167° |
| 2026-05-06 21:37 | 38.29083 | 27.15209 | 411 ft | 8 kts | 167° |
| 2026-05-06 21:37 | 38.29025 | 27.15232 | 411 ft | 9 kts | 139° |
| 2026-05-06 21:38 | 38.28989 | 27.15300 | 411 ft | 10 kts | 149° |
| 2026-05-06 21:38 | 38.28922 | 27.15324 | 411 ft | 10 kts | 166° |
| 2026-05-06 21:38 | 38.28861 | 27.15342 | 414 ft | 9 kts | 167° |
| 2026-05-06 21:38 | 38.28803 | 27.15360 | 411 ft | 9 kts | 167° |
| 2026-05-06 21:39 | 38.28729 | 27.15382 | 415 ft | 12 kts | 167° |
| 2026-05-06 21:39 | 38.28633 | 27.15411 | 414 ft | 16 kts | 166° |
| 2026-05-06 21:39 | 38.28507 | 27.15449 | 413 ft | 20 kts | 166° |
| 2026-05-06 21:39 | 38.28369 | 27.15491 | 411 ft | 21 kts | 167° |
| 2026-05-06 21:40 | 38.28227 | 27.15534 | 418 ft | 21 kts | 167° |
| 2026-05-06 21:40 | 38.28120 | 27.15566 | 415 ft | 10 kts | 166° |
| 2026-05-06 21:40 | 38.28102 | 27.15639 | 416 ft | 9 kts | 80° |
| 2026-05-06 21:40 | 38.28107 | 27.15662 | 418 ft | 0 kts | 77° |
| 2026-05-06 21:41 | 38.28111 | 27.15682 | 410 ft | 6 kts | 76° |
| 2026-05-06 21:41 | 38.28127 | 27.15767 | 412 ft | 10 kts | 76° |
| 2026-05-06 21:41 | 38.28182 | 27.15799 | 412 ft | 8 kts | 349° |
| 2026-05-06 21:42 | 38.28194 | 27.15796 | 413 ft | 0 kts | 348° |
| 2026-05-06 21:42 | 38.28324 | 27.15757 | 415 ft | 54 kts | 346° |
| 2026-05-06 21:42 | 38.28930 | 27.15572 | 417 ft | 123 kts | 347° |
| 2026-05-06 21:42 | 38.29947 | 27.15267 | 482 ft | 169 kts | 347° |
| 2026-05-06 21:43 | 38.31086 | 27.14941 | 1177 ft | 168 kts | 347° |
| 2026-05-06 21:43 | 38.32228 | 27.14617 | 1901 ft | 168 kts | 346° |
| 2026-05-06 21:43 | 38.33362 | 27.14293 | 2532 ft | 167 kts | 347° |
| 2026-05-06 21:43 | 38.34488 | 27.13974 | 3113 ft | 167 kts | 347° |
| 2026-05-06 21:44 | 38.35616 | 27.13660 | 3647 ft | 170 kts | 348° |
| 2026-05-06 21:44 | 38.36821 | 27.13331 | 3899 ft | 190 kts | 348° |
| 2026-05-06 21:44 | 38.38186 | 27.12959 | 4094 ft | 211 kts | 348° |
| 2026-05-06 21:44 | 38.39659 | 27.12556 | 4322 ft | 225 kts | 347° |
| 2026-05-06 21:45 | 38.41204 | 27.12106 | 4726 ft | 229 kts | 347° |
| 2026-05-06 21:45 | 38.42789 | 27.11628 | 5095 ft | 237 kts | 347° |
| 2026-05-06 21:45 | 38.44449 | 27.11125 | 5212 ft | 261 kts | 347° |
| 2026-05-06 21:45 | 38.46246 | 27.10582 | 5775 ft | 269 kts | 347° |
| 2026-05-06 21:46 | 38.48075 | 27.10024 | 6505 ft | 271 kts | 347° |
| 2026-05-06 21:46 | 38.49916 | 27.09462 | 7226 ft | 272 kts | 347° |
| 2026-05-06 21:46 | 38.51756 | 27.08904 | 7964 ft | 273 kts | 347° |
| 2026-05-06 21:46 | 38.53611 | 27.08343 | 8713 ft | 274 kts | 347° |
| 2026-05-06 21:47 | 38.55471 | 27.07780 | 9478 ft | 275 kts | 347° |
| 2026-05-06 21:47 | 38.57337 | 27.07214 | 10198 ft | 277 kts | 347° |
| 2026-05-06 21:47 | 38.59280 | 27.06627 | 10394 ft | 298 kts | 348° |
| 2026-05-06 21:47 | 38.61408 | 27.06308 | 10537 ft | 318 kts | 359° |
| 2026-05-06 21:48 | 38.63643 | 27.06568 | 10956 ft | 327 kts | 8° |
| 2026-05-06 21:48 | 38.65905 | 27.06995 | 11525 ft | 330 kts | 7° |
| 2026-05-06 21:48 | 38.68192 | 27.07418 | 12101 ft | 334 kts | 7° |
| 2026-05-06 21:48 | 38.70507 | 27.07844 | 12709 ft | 337 kts | 7° |
| 2026-05-06 21:49 | 38.72835 | 27.08273 | 13293 ft | 339 kts | 7° |
| 2026-05-06 21:49 | 38.75192 | 27.08705 | 13886 ft | 343 kts | 6° |
| 2026-05-06 21:49 | 38.77567 | 27.09140 | 14423 ft | 346 kts | 6° |
| 2026-05-06 21:49 | 38.79961 | 27.09578 | 14961 ft | 349 kts | 6° |
| 2026-05-06 21:50 | 38.82372 | 27.10022 | 15492 ft | 351 kts | 6° |
| 2026-05-06 21:50 | 38.84802 | 27.10472 | 16033 ft | 354 kts | 6° |
| 2026-05-06 21:50 | 38.87252 | 27.10927 | 16567 ft | 357 kts | 6° |
| 2026-05-06 21:50 | 38.89687 | 27.11384 | 17085 ft | 359 kts | 6° |
| 2026-05-06 21:51 | 38.92166 | 27.11846 | 17614 ft | 361 kts | 6° |
| 2026-05-06 21:51 | 38.94692 | 27.12318 | 18138 ft | 364 kts | 6° |
| 2026-05-06 21:51 | 38.97213 | 27.12788 | 18615 ft | 366 kts | 6° |
| 2026-05-06 21:51 | 38.99738 | 27.13257 | 19063 ft | 368 kts | 6° |
| 2026-05-06 21:52 | 39.02282 | 27.13725 | 19514 ft | 370 kts | 5° |
| 2026-05-06 21:52 | 39.04838 | 27.14187 | 19961 ft | 372 kts | 5° |
| 2026-05-06 21:52 | 39.07405 | 27.14653 | 20403 ft | 373 kts | 5° |
| 2026-05-06 21:52 | 39.09984 | 27.15122 | 20834 ft | 375 kts | 5° |
| 2026-05-06 21:53 | 39.12574 | 27.15592 | 21268 ft | 377 kts | 5° |
| 2026-05-06 21:53 | 39.15178 | 27.16068 | 21694 ft | 379 kts | 5° |
| 2026-05-06 21:53 | 39.17794 | 27.16548 | 22115 ft | 381 kts | 5° |
| 2026-05-06 21:53 | 39.20422 | 27.17026 | 22529 ft | 382 kts | 5° |
| 2026-05-06 21:54 | 39.23029 | 27.17499 | 22949 ft | 384 kts | 5° |
| 2026-05-06 21:54 | 39.25682 | 27.17978 | 23356 ft | 386 kts | 5° |
| 2026-05-06 21:54 | 39.28348 | 27.18461 | 23742 ft | 388 kts | 5° |
| 2026-05-06 21:54 | 39.31063 | 27.18958 | 24080 ft | 390 kts | 5° |
| 2026-05-06 21:55 | 39.33718 | 27.19450 | 24420 ft | 392 kts | 5° |
| 2026-05-06 21:55 | 39.36456 | 27.19961 | 24763 ft | 393 kts | 5° |
| 2026-05-06 21:55 | 39.39169 | 27.20465 | 25110 ft | 394 kts | 5° |
| 2026-05-06 21:55 | 39.41895 | 27.20969 | 25455 ft | 396 kts | 5° |
| 2026-05-06 21:56 | 39.44624 | 27.21457 | 25789 ft | 396 kts | 3° |
| 2026-05-06 21:56 | 39.47367 | 27.21811 | 26124 ft | 397 kts | 1° |
| 2026-05-06 21:56 | 39.50089 | 27.22045 | 26432 ft | 397 kts | 360° |
| 2026-05-06 21:56 | 39.52853 | 27.22223 | 26769 ft | 398 kts | 359° |
| 2026-05-06 21:57 | 39.55626 | 27.22387 | 27055 ft | 400 kts | 359° |
| 2026-05-06 21:57 | 39.58382 | 27.22566 | 27113 ft | 390 kts | 359° |
| 2026-05-06 21:57 | 39.61059 | 27.22762 | 27119 ft | 383 kts | 360° |
| 2026-05-06 21:57 | 39.63710 | 27.22971 | 27118 ft | 381 kts | 360° |
| 2026-05-06 21:58 | 39.66351 | 27.23188 | 27119 ft | 380 kts | 0° |
| 2026-05-06 21:58 | 39.68988 | 27.23408 | 27132 ft | 380 kts | 0° |
| 2026-05-06 21:58 | 39.71630 | 27.23627 | 27122 ft | 379 kts | 0° |
| 2026-05-06 21:58 | 39.74265 | 27.23847 | 27122 ft | 379 kts | 0° |
| 2026-05-06 21:59 | 39.76900 | 27.24067 | 27118 ft | 379 kts | 0° |
| 2026-05-06 21:59 | 39.79536 | 27.24283 | 27119 ft | 380 kts | 360° |
| 2026-05-06 21:59 | 39.82171 | 27.24496 | 27119 ft | 379 kts | 0° |
| 2026-05-06 21:59 | 39.84801 | 27.24710 | 27115 ft | 379 kts | 0° |
| 2026-05-06 22:00 | 39.87434 | 27.24927 | 27112 ft | 379 kts | 0° |
| 2026-05-06 22:00 | 39.90065 | 27.25146 | 27120 ft | 379 kts | 0° |
| 2026-05-06 22:00 | 39.92698 | 27.25363 | 27121 ft | 379 kts | 0° |
| 2026-05-06 22:00 | 39.95332 | 27.25576 | 27121 ft | 379 kts | 0° |
| 2026-05-06 22:01 | 39.97965 | 27.25789 | 27122 ft | 379 kts | 0° |
| 2026-05-06 22:01 | 40.00596 | 27.26003 | 27120 ft | 379 kts | 0° |
| 2026-05-06 22:01 | 40.03227 | 27.26219 | 27116 ft | 379 kts | 0° |
| 2026-05-06 22:01 | 40.05856 | 27.26437 | 27116 ft | 380 kts | 0° |
| 2026-05-06 22:02 | 40.08530 | 27.26658 | 27118 ft | 390 kts | 0° |
| 2026-05-06 22:02 | 40.11264 | 27.26881 | 27108 ft | 395 kts | 0° |
| 2026-05-06 22:02 | 40.13982 | 27.27106 | 26972 ft | 386 kts | 0° |
| 2026-05-06 22:02 | 40.16611 | 27.27629 | 26513 ft | 384 kts | 12° |
| 2026-05-06 22:03 | 40.19081 | 27.28975 | 26015 ft | 387 kts | 26° |
| 2026-05-06 22:03 | 40.21204 | 27.31090 | 25842 ft | 382 kts | 39° |
| 2026-05-06 22:03 | 40.23035 | 27.33588 | 25490 ft | 378 kts | 41° |
| 2026-05-06 22:03 | 40.24831 | 27.36071 | 25062 ft | 374 kts | 41° |
| 2026-05-06 22:04 | 40.26614 | 27.38540 | 24620 ft | 371 kts | 41° |
| 2026-05-06 22:04 | 40.28377 | 27.40984 | 24180 ft | 368 kts | 41° |
| 2026-05-06 22:04 | 40.30129 | 27.43416 | 23745 ft | 365 kts | 41° |
| 2026-05-06 22:04 | 40.31864 | 27.45832 | 23242 ft | 363 kts | 42° |
| 2026-05-06 22:05 | 40.33579 | 27.48226 | 22752 ft | 360 kts | 41° |
| 2026-05-06 22:05 | 40.35281 | 27.50602 | 22291 ft | 355 kts | 41° |
| 2026-05-06 22:05 | 40.36967 | 27.52953 | 21785 ft | 352 kts | 41° |
| 2026-05-06 22:05 | 40.38641 | 27.55286 | 21280 ft | 350 kts | 41° |
| 2026-05-06 22:06 | 40.40304 | 27.57602 | 20781 ft | 347 kts | 42° |
| 2026-05-06 22:06 | 40.41952 | 27.59903 | 20321 ft | 345 kts | 42° |
| 2026-05-06 22:06 | 40.43038 | 27.61420 | 20005 ft | 343 kts | 42° |
| 2026-05-06 22:06 | 40.44665 | 27.63697 | 19537 ft | 341 kts | 42° |
| 2026-05-06 22:07 | 40.46281 | 27.65962 | 19068 ft | 339 kts | 42° |
| 2026-05-06 22:07 | 40.47884 | 27.68216 | 18609 ft | 337 kts | 42° |
| 2026-05-06 22:07 | 40.49476 | 27.70452 | 18127 ft | 335 kts | 43° |
| 2026-05-06 22:07 | 40.51063 | 27.72677 | 17641 ft | 332 kts | 43° |
| 2026-05-06 22:08 | 40.53149 | 27.75598 | 17007 ft | 329 kts | 43° |
| 2026-05-06 22:08 | 40.54200 | 27.77071 | 16685 ft | 327 kts | 43° |
| 2026-05-06 22:08 | 40.55748 | 27.79244 | 16215 ft | 324 kts | 43° |
| 2026-05-06 22:08 | 40.57281 | 27.81403 | 15751 ft | 322 kts | 43° |
| 2026-05-06 22:09 | 40.58801 | 27.83546 | 15287 ft | 319 kts | 43° |
| 2026-05-06 22:09 | 40.60311 | 27.85671 | 14834 ft | 317 kts | 43° |
| 2026-05-06 22:09 | 40.61809 | 27.87780 | 14384 ft | 314 kts | 44° |
| 2026-05-06 22:09 | 40.63297 | 27.89874 | 13953 ft | 312 kts | 44° |
| 2026-05-06 22:10 | 40.64775 | 27.91954 | 13462 ft | 310 kts | 44° |
| 2026-05-06 22:10 | 40.66241 | 27.94020 | 12974 ft | 308 kts | 44° |
| 2026-05-06 22:10 | 40.67697 | 27.96079 | 12491 ft | 306 kts | 43° |
| 2026-05-06 22:10 | 40.69144 | 27.98131 | 11972 ft | 306 kts | 43° |
| 2026-05-06 22:11 | 40.70584 | 28.00174 | 11567 ft | 302 kts | 43° |
| 2026-05-06 22:11 | 40.72002 | 28.02189 | 11195 ft | 299 kts | 43° |
| 2026-05-06 22:11 | 40.73412 | 28.04195 | 10830 ft | 297 kts | 43° |
| 2026-05-06 22:11 | 40.74403 | 28.05603 | 10575 ft | 296 kts | 43° |
| 2026-05-06 22:12 | 40.75802 | 28.07587 | 10219 ft | 294 kts | 43° |
| 2026-05-06 22:12 | 40.77180 | 28.09547 | 9943 ft | 288 kts | 43° |
| 2026-05-06 22:12 | 40.78520 | 28.11457 | 9708 ft | 281 kts | 43° |
| 2026-05-06 22:12 | 40.79851 | 28.13353 | 9369 ft | 280 kts | 43° |
| 2026-05-06 22:13 | 40.81174 | 28.15234 | 8989 ft | 279 kts | 43° |
| 2026-05-06 22:13 | 40.82490 | 28.17105 | 8599 ft | 277 kts | 43° |
| 2026-05-06 22:13 | 40.83799 | 28.18967 | 8202 ft | 276 kts | 44° |
| 2026-05-06 22:13 | 40.85102 | 28.20826 | 7822 ft | 275 kts | 44° |
| 2026-05-06 22:14 | 40.86394 | 28.22671 | 7448 ft | 274 kts | 44° |
| 2026-05-06 22:14 | 40.87684 | 28.24514 | 7064 ft | 273 kts | 44° |
| 2026-05-06 22:14 | 40.88971 | 28.26351 | 6691 ft | 272 kts | 44° |
| 2026-05-06 22:14 | 40.90254 | 28.28183 | 6296 ft | 271 kts | 44° |
| 2026-05-06 22:15 | 40.91535 | 28.30017 | 5914 ft | 271 kts | 44° |
| 2026-05-06 22:15 | 40.92813 | 28.31849 | 5529 ft | 271 kts | 44° |
| 2026-05-06 22:15 | 40.94089 | 28.33680 | 5222 ft | 268 kts | 44° |
| 2026-05-06 22:15 | 40.95328 | 28.35457 | 5083 ft | 257 kts | 44° |
| 2026-05-06 22:16 | 40.96404 | 28.37278 | 5009 ft | 248 kts | 62° |
| 2026-05-06 22:16 | 40.96772 | 28.39490 | 5012 ft | 251 kts | 92° |
| 2026-05-06 22:16 | 40.96282 | 28.41702 | 5014 ft | 254 kts | 119° |
| 2026-05-06 22:16 | 40.95406 | 28.43743 | 5011 ft | 255 kts | 120° |
| 2026-05-06 22:17 | 40.94522 | 28.45776 | 5008 ft | 255 kts | 120° |
| 2026-05-06 22:17 | 40.93637 | 28.47811 | 5008 ft | 255 kts | 120° |
| 2026-05-06 22:17 | 40.92753 | 28.49846 | 5004 ft | 255 kts | 120° |
| 2026-05-06 22:17 | 40.91871 | 28.51877 | 5007 ft | 255 kts | 120° |
| 2026-05-06 22:18 | 40.90989 | 28.53910 | 5007 ft | 255 kts | 120° |
| 2026-05-06 22:18 | 40.90119 | 28.55946 | 5007 ft | 255 kts | 115° |
| 2026-05-06 22:18 | 40.89590 | 28.58159 | 5008 ft | 253 kts | 95° |
| 2026-05-06 22:18 | 40.89623 | 28.60455 | 5008 ft | 249 kts | 76° |
| 2026-05-06 22:19 | 40.90128 | 28.62633 | 5014 ft | 248 kts | 67° |
| 2026-05-06 22:19 | 40.90694 | 28.64789 | 5010 ft | 248 kts | 68° |
| 2026-05-06 22:19 | 40.91269 | 28.66943 | 5012 ft | 248 kts | 62° |
| 2026-05-06 22:19 | 40.92170 | 28.68843 | 5009 ft | 242 kts | 43° |
| 2026-05-06 22:20 | 40.93442 | 28.70258 | 5012 ft | 237 kts | 26° |
| 2026-05-06 22:20 | 40.94881 | 28.71310 | 5009 ft | 237 kts | 24° |
| 2026-05-06 22:20 | 40.96321 | 28.72363 | 5011 ft | 237 kts | 24° |
| 2026-05-06 22:20 | 40.97792 | 28.73148 | 5020 ft | 219 kts | 8° |
| 2026-05-06 22:21 | 40.99246 | 28.73300 | 5016 ft | 200 kts | 355° |
| 2026-05-06 22:21 | 41.00577 | 28.73275 | 5011 ft | 187 kts | 354° |
| 2026-05-06 22:21 | 41.01870 | 28.73248 | 4978 ft | 185 kts | 354° |
| 2026-05-06 22:21 | 41.03157 | 28.73222 | 4801 ft | 185 kts | 354° |
| 2026-05-06 22:22 | 41.04440 | 28.73197 | 4571 ft | 184 kts | 354° |
| 2026-05-06 22:22 | 41.05724 | 28.73172 | 4332 ft | 185 kts | 355° |
| 2026-05-06 22:22 | 41.07011 | 28.73147 | 4080 ft | 184 kts | 355° |
| 2026-05-06 22:22 | 41.08297 | 28.73122 | 3835 ft | 185 kts | 355° |
| 2026-05-06 22:23 | 41.09587 | 28.73097 | 3589 ft | 186 kts | 355° |
| 2026-05-06 22:23 | 41.10883 | 28.73072 | 3340 ft | 187 kts | 356° |
| 2026-05-06 22:23 | 41.12184 | 28.73047 | 3088 ft | 187 kts | 356° |
| 2026-05-06 22:23 | 41.13488 | 28.73022 | 2833 ft | 187 kts | 356° |
| 2026-05-06 22:24 | 41.14789 | 28.72997 | 2587 ft | 187 kts | 356° |
| 2026-05-06 22:24 | 41.16085 | 28.72972 | 2352 ft | 184 kts | 357° |
| 2026-05-06 22:24 | 41.17313 | 28.72949 | 2103 ft | 169 kts | 358° |
| 2026-05-06 22:24 | 41.18436 | 28.72928 | 1880 ft | 156 kts | 358° |
| 2026-05-06 22:25 | 41.19501 | 28.72908 | 1669 ft | 151 kts | 358° |
| 2026-05-06 22:25 | 41.20527 | 28.72881 | 1470 ft | 149 kts | 357° |
| 2026-05-06 22:25 | 41.21550 | 28.72852 | 1261 ft | 146 kts | 0° |
| 2026-05-06 22:25 | 41.22565 | 28.72857 | 1074 ft | 146 kts | 0° |
| 2026-05-06 22:26 | 41.23578 | 28.72835 | 872 ft | 146 kts | 0° |
| 2026-05-06 22:26 | 41.24590 | 28.72809 | 673 ft | 146 kts | 1° |
| 2026-05-06 22:26 | 41.25610 | 28.72792 | 479 ft | 147 kts | 0° |
| 2026-05-06 22:26 | 41.26622 | 28.72767 | 346 ft | 139 kts | 1° |
| 2026-05-06 22:27 | 41.27474 | 28.72748 | 333 ft | 100 kts | 359° |
| 2026-05-06 22:27 | 41.27997 | 28.72737 | 332 ft | 55 kts | 359° |
| 2026-05-06 22:27 | 41.28262 | 28.72748 | 334 ft | 24 kts | 12° |
| 2026-05-06 22:27 | 41.28409 | 28.72837 | 332 ft | 21 kts | 30° |
| 2026-05-06 22:28 | 41.28457 | 28.72915 | 331 ft | 10 kts | 97° |
| 2026-05-06 22:28 | 41.28402 | 28.72951 | 332 ft | 10 kts | 172° |
| 2026-05-06 22:28 | 41.28328 | 28.72955 | 333 ft | 11 kts | 178° |
| 2026-05-06 22:28 | 41.28243 | 28.72957 | 333 ft | 13 kts | 179° |
| 2026-05-06 22:29 | 41.28132 | 28.72959 | 332 ft | 20 kts | 179° |
| 2026-05-06 22:29 | 41.27977 | 28.72963 | 333 ft | 23 kts | 179° |
| 2026-05-06 22:29 | 41.27813 | 28.72967 | 333 ft | 24 kts | 179° |
| 2026-05-06 22:29 | 41.27642 | 28.72971 | 334 ft | 25 kts | 179° |
| 2026-05-06 22:30 | 41.27465 | 28.72976 | 332 ft | 26 kts | 179° |
| 2026-05-06 22:30 | 41.27284 | 28.72980 | 333 ft | 27 kts | 179° |
| 2026-05-06 22:30 | 41.27097 | 28.72984 | 331 ft | 25 kts | 179° |
| 2026-05-06 22:30 | 41.26982 | 28.72991 | 331 ft | 11 kts | 163° |
| 2026-05-06 22:31 | 41.26953 | 28.73060 | 334 ft | 8 kts | 92° |
| 2026-05-06 22:31 | 41.26954 | 28.73138 | 334 ft | 9 kts | 88° |
| 2026-05-06 22:31 | 41.26955 | 28.73237 | 334 ft | 12 kts | 89° |
| 2026-05-06 22:31 | 41.26957 | 28.73362 | 330 ft | 15 kts | 90° |
| 2026-05-06 22:32 | 41.26959 | 28.73512 | 333 ft | 18 kts | 89° |
| 2026-05-06 22:32 | 41.26961 | 28.73685 | 334 ft | 20 kts | 89° |
| 2026-05-06 22:32 | 41.26964 | 28.73875 | 334 ft | 20 kts | 89° |
| 2026-05-06 22:32 | 41.26966 | 28.74050 | 334 ft | 18 kts | 88° |
| 2026-05-06 22:33 | 41.26968 | 28.74202 | 334 ft | 15 kts | 89° |
| 2026-05-06 22:33 | 41.26970 | 28.74332 | 334 ft | 13 kts | 89° |
| 2026-05-06 22:33 | 41.26971 | 28.74461 | 334 ft | 14 kts | 89° |
| 2026-05-06 22:33 | 41.26973 | 28.74596 | 331 ft | 15 kts | 89° |
| 2026-05-06 22:34 | 41.26975 | 28.74739 | 334 ft | 16 kts | 89° |
| 2026-05-06 22:34 | 41.26977 | 28.74887 | 334 ft | 16 kts | 89° |
| 2026-05-06 22:34 | 41.26979 | 28.75025 | 334 ft | 14 kts | 89° |
| 2026-05-06 22:34 | 41.26962 | 28.75133 | 332 ft | 11 kts | 139° |
| 2026-05-06 22:35 | 41.26892 | 28.75150 | 332 ft | 10 kts | 178° |
| 2026-05-06 22:35 | 41.26812 | 28.75152 | 331 ft | 13 kts | 179° |
| 2026-05-06 22:35 | 41.26720 | 28.75155 | 332 ft | 14 kts | 179° |
| 2026-05-06 22:35 | 41.26632 | 28.75146 | 334 ft | 12 kts | 194° |
| 2026-05-06 22:36 | 41.26555 | 28.75114 | 330 ft | 12 kts | 198° |
| 2026-05-06 22:36 | 41.26477 | 28.75082 | 333 ft | 12 kts | 197° |
| 2026-05-06 22:36 | 41.26399 | 28.75050 | 334 ft | 12 kts | 197° |
| 2026-05-06 22:36 | 41.26320 | 28.75018 | 331 ft | 12 kts | 197° |
| 2026-05-06 22:37 | 41.26245 | 28.74993 | 333 ft | 10 kts | 186° |
| 2026-05-06 22:37 | 41.26184 | 28.74997 | 332 ft | 8 kts | 168° |
| 2026-05-06 22:37 | 41.26139 | 28.75016 | 333 ft | 7 kts | 161° |
| 2026-05-06 22:37 | 41.26092 | 28.75038 | 331 ft | 7 kts | 160° |
| 2026-05-06 22:38 | 41.26043 | 28.75061 | 333 ft | 8 kts | 161° |
| 2026-05-06 22:38 | 41.25989 | 28.75085 | 331 ft | 9 kts | 160° |
| 2026-05-06 22:38 | 41.25944 | 28.75073 | 330 ft | 6 kts | 228° |
| 2026-05-06 22:38 | 41.25928 | 28.75030 | 332 ft | 4 kts | 251° |
| 2026-05-06 22:39 | 41.25921 | 28.75002 | 330 ft | 2 kts | 251° |
| 2026-05-06 22:39 | 41.25918 | 28.74992 | 330 ft | 0 kts | 251° |
| 2026-05-06 22:39 | 41.25917 | 28.74988 | 330 ft | 1 kts | 251° |
| 2026-05-06 22:39 | 41.25917 | 28.74986 | 331 ft | 0 kts | 251° |
| 2026-05-06 22:40 | 41.25916 | 28.74984 | 330 ft | 0 kts | 251° |